sensor_id;sensor_type;location;lat;lon;timestamp;temperature;humidity
64951;DHT22;51482;47.014;7.652;2023-08-24T00:01:04;23.00;99.90
64951;DHT22;51482;47.014;7.652;2023-08-24T00:03:29;23.00;99.90
64951;DHT22;51482;47.014;7.652;2023-08-24T00:05:55;22.90;99.90
64951;DHT22;51482;47.014;7.652;2023-08-24T00:08:21;22.80;99.90
64951;DHT22;51482;47.014;7.652;2023-08-24T00:10:46;22.70;99.90
64951;DHT22;51482;47.014;7.652;2023-08-24T00:13:13;22.60;99.90
64951;DHT22;51482;47.014;7.652;2023-08-24T00:15:38;22.50;99.90
64951;DHT22;51482;47.014;7.652;2023-08-24T00:18:05;22.50;99.90
64951;DHT22;51482;47.014;7.652;2023-08-24T00:20:31;22.30;99.90
64951;DHT22;51482;47.014;7.652;2023-08-24T00:22:58;22.50;99.90
64951;DHT22;51482;47.014;7.652;2023-08-24T00:25:24;22.60;99.90
64951;DHT22;51482;47.014;7.652;2023-08-24T00:27:52;22.50;99.90
64951;DHT22;51482;47.014;7.652;2023-08-24T00:30:18;23.00;99.90
64951;DHT22;51482;47.014;7.652;2023-08-24T00:32:43;22.60;99.90
64951;DHT22;51482;47.014;7.652;2023-08-24T00:35:09;22.80;99.90
64951;DHT22;51482;47.014;7.652;2023-08-24T00:37:36;22.50;99.90
64951;DHT22;51482;47.014;7.652;2023-08-24T00:40:04;22.40;99.90
64951;DHT22;51482;47.014;7.652;2023-08-24T00:42:36;22.30;99.90
64951;DHT22;51482;47.014;7.652;2023-08-24T00:45:01;22.20;99.90
64951;DHT22;51482;47.014;7.652;2023-08-24T00:47:28;22.20;99.90
64951;DHT22;51482;47.014;7.652;2023-08-24T00:49:54;22.20;99.90
64951;DHT22;51482;47.014;7.652;2023-08-24T00:52:20;22.60;99.90
64951;DHT22;51482;47.014;7.652;2023-08-24T00:54:46;22.20;99.90
64951;DHT22;51482;47.014;7.652;2023-08-24T00:57:12;22.20;99.90
64951;DHT22;51482;47.014;7.652;2023-08-24T00:59:39;22.20;99.90
64951;DHT22;51482;47.014;7.652;2023-08-24T01:02:04;22.10;99.90
64951;DHT22;51482;47.014;7.652;2023-08-24T01:04:30;22.00;99.90
64951;DHT22;51482;47.014;7.652;2023-08-24T01:06:56;21.30;99.90
64951;DHT22;51482;47.014;7.652;2023-08-24T01:09:22;21.90;99.90
64951;DHT22;51482;47.014;7.652;2023-08-24T01:11:58;22.00;99.90
64951;DHT22;51482;47.014;7.652;2023-08-24T01:14:42;22.00;99.90
64951;DHT22;51482;47.014;7.652;2023-08-24T01:17:14;21.90;99.90
64951;DHT22;51482;47.014;7.652;2023-08-24T01:19:43;21.90;99.90
64951;DHT22;51482;47.014;7.652;2023-08-24T01:25:38;21.80;99.90
64951;DHT22;51482;47.014;7.652;2023-08-24T01:28:06;21.40;99.90
64951;DHT22;51482;47.014;7.652;2023-08-24T01:30:34;21.70;99.90
64951;DHT22;51482;47.014;7.652;2023-08-24T01:33:03;21.70;99.90
64951;DHT22;51482;47.014;7.652;2023-08-24T01:35:30;21.60;99.90
64951;DHT22;51482;47.014;7.652;2023-08-24T01:37:55;21.50;99.90
64951;DHT22;51482;47.014;7.652;2023-08-24T01:40:27;21.50;99.90
64951;DHT22;51482;47.014;7.652;2023-08-24T01:43:03;21.40;99.90
64951;DHT22;51482;47.014;7.652;2023-08-24T01:45:32;21.50;99.90
64951;DHT22;51482;47.014;7.652;2023-08-24T01:48:01;21.60;99.90
64951;DHT22;51482;47.014;7.652;2023-08-24T01:50:28;21.50;99.90
64951;DHT22;51482;47.014;7.652;2023-08-24T01:52:54;21.50;99.90
64951;DHT22;51482;47.014;7.652;2023-08-24T01:55:20;21.30;99.90
64951;DHT22;51482;47.014;7.652;2023-08-24T01:57:47;21.40;99.90
64951;DHT22;51482;47.014;7.652;2023-08-24T02:00:13;21.40;99.90
64951;DHT22;51482;47.014;7.652;2023-08-24T02:02:39;21.20;99.90
64951;DHT22;51482;47.014;7.652;2023-08-24T02:05:05;21.20;99.90
64951;DHT22;51482;47.014;7.652;2023-08-24T02:07:30;21.20;99.90
64951;DHT22;51482;47.014;7.652;2023-08-24T02:09:56;21.20;99.90
64951;DHT22;51482;47.014;7.652;2023-08-24T02:12:21;21.20;99.90
64951;DHT22;51482;47.014;7.652;2023-08-24T02:14:47;21.20;99.90
64951;DHT22;51482;47.014;7.652;2023-08-24T02:17:12;21.20;99.90
64951;DHT22;51482;47.014;7.652;2023-08-24T02:19:39;21.20;99.90
64951;DHT22;51482;47.014;7.652;2023-08-24T02:22:06;21.40;99.90
64951;DHT22;51482;47.014;7.652;2023-08-24T02:24:32;21.20;99.90
64951;DHT22;51482;47.014;7.652;2023-08-24T02:26:58;21.20;99.90
64951;DHT22;51482;47.014;7.652;2023-08-24T02:29:23;21.10;99.90
64951;DHT22;51482;47.014;7.652;2023-08-24T02:31:51;21.00;99.90
64951;DHT22;51482;47.014;7.652;2023-08-24T02:34:17;21.00;99.90
64951;DHT22;51482;47.014;7.652;2023-08-24T02:36:43;21.10;99.90
64951;DHT22;51482;47.014;7.652;2023-08-24T02:39:09;21.00;99.90
64951;DHT22;51482;47.014;7.652;2023-08-24T02:41:35;21.00;99.90
64951;DHT22;51482;47.014;7.652;2023-08-24T02:44:01;21.00;99.90
64951;DHT22;51482;47.014;7.652;2023-08-24T02:46:27;21.00;99.90
64951;DHT22;51482;47.014;7.652;2023-08-24T02:48:52;20.90;99.90
64951;DHT22;51482;47.014;7.652;2023-08-24T02:51:21;20.80;99.90
64951;DHT22;51482;47.014;7.652;2023-08-24T02:53:48;20.90;99.90
64951;DHT22;51482;47.014;7.652;2023-08-24T02:56:13;20.70;99.90
64951;DHT22;51482;47.014;7.652;2023-08-24T02:58:39;20.70;99.90
64951;DHT22;51482;47.014;7.652;2023-08-24T03:01:05;20.60;99.90
64951;DHT22;51482;47.014;7.652;2023-08-24T03:03:33;20.60;99.90
64951;DHT22;51482;47.014;7.652;2023-08-24T03:06:01;20.60;99.90
64951;DHT22;51482;47.014;7.652;2023-08-24T03:08:27;20.70;99.90
64951;DHT22;51482;47.014;7.652;2023-08-24T03:10:53;20.70;99.90
64951;DHT22;51482;47.014;7.652;2023-08-24T03:13:19;20.60;99.90
64951;DHT22;51482;47.014;7.652;2023-08-24T03:15:45;20.60;99.90
64951;DHT22;51482;47.014;7.652;2023-08-24T03:18:14;20.50;99.90
64951;DHT22;51482;47.014;7.652;2023-08-24T03:20:40;20.50;99.90
64951;DHT22;51482;47.014;7.652;2023-08-24T03:23:06;20.50;99.90
64951;DHT22;51482;47.014;7.652;2023-08-24T03:25:35;20.80;99.90
64951;DHT22;51482;47.014;7.652;2023-08-24T03:28:02;20.60;99.90
64951;DHT22;51482;47.014;7.652;2023-08-24T03:30:28;20.60;99.90
64951;DHT22;51482;47.014;7.652;2023-08-24T03:32:53;21.00;99.90
64951;DHT22;51482;47.014;7.652;2023-08-24T03:35:19;20.40;99.90
64951;DHT22;51482;47.014;7.652;2023-08-24T03:37:44;20.40;99.90
64951;DHT22;51482;47.014;7.652;2023-08-24T03:40:11;20.30;99.90
64951;DHT22;51482;47.014;7.652;2023-08-24T03:42:36;20.30;99.90
64951;DHT22;51482;47.014;7.652;2023-08-24T03:45:02;19.60;99.90
64951;DHT22;51482;47.014;7.652;2023-08-24T03:47:28;20.10;99.90
64951;DHT22;51482;47.014;7.652;2023-08-24T03:49:54;20.00;99.90
64951;DHT22;51482;47.014;7.652;2023-08-24T03:52:20;20.10;99.90
64951;DHT22;51482;47.014;7.652;2023-08-24T03:54:46;20.10;99.90
64951;DHT22;51482;47.014;7.652;2023-08-24T03:57:11;19.60;99.90
64951;DHT22;51482;47.014;7.652;2023-08-24T03:59:37;20.10;99.90
64951;DHT22;51482;47.014;7.652;2023-08-24T04:02:02;20.10;99.90
64951;DHT22;51482;47.014;7.652;2023-08-24T04:04:30;20.10;99.90
64951;DHT22;51482;47.014;7.652;2023-08-24T04:06:55;20.10;99.90
64951;DHT22;51482;47.014;7.652;2023-08-24T04:09:21;20.00;99.90
64951;DHT22;51482;47.014;7.652;2023-08-24T04:11:47;20.00;99.90
64951;DHT22;51482;47.014;7.652;2023-08-24T04:14:12;20.30;99.90
64951;DHT22;51482;47.014;7.652;2023-08-24T04:16:39;20.40;99.90
64951;DHT22;51482;47.014;7.652;2023-08-24T04:19:05;20.30;99.90
64951;DHT22;51482;47.014;7.652;2023-08-24T04:21:30;20.20;99.90
64951;DHT22;51482;47.014;7.652;2023-08-24T04:23:56;20.30;99.90
64951;DHT22;51482;47.014;7.652;2023-08-24T04:26:21;20.30;99.90
64951;DHT22;51482;47.014;7.652;2023-08-24T04:28:47;20.30;99.90
64951;DHT22;51482;47.014;7.652;2023-08-24T04:31:12;20.20;99.90
64951;DHT22;51482;47.014;7.652;2023-08-24T04:33:38;20.30;99.90
64951;DHT22;51482;47.014;7.652;2023-08-24T04:36:03;20.10;99.90
64951;DHT22;51482;47.014;7.652;2023-08-24T04:38:29;20.00;99.90
64951;DHT22;51482;47.014;7.652;2023-08-24T04:40:55;19.90;99.90
64951;DHT22;51482;47.014;7.652;2023-08-24T04:43:23;19.90;99.90
64951;DHT22;51482;47.014;7.652;2023-08-24T04:45:50;19.90;99.90
64951;DHT22;51482;47.014;7.652;2023-08-24T04:48:20;19.90;99.90
64951;DHT22;51482;47.014;7.652;2023-08-24T04:50:46;19.80;99.90
64951;DHT22;51482;47.014;7.652;2023-08-24T04:53:14;19.80;99.90
64951;DHT22;51482;47.014;7.652;2023-08-24T04:55:40;19.60;99.90
64951;DHT22;51482;47.014;7.652;2023-08-24T04:58:10;19.50;99.90
64951;DHT22;51482;47.014;7.652;2023-08-24T05:00:36;19.40;99.90
64951;DHT22;51482;47.014;7.652;2023-08-24T05:03:06;19.50;99.90
64951;DHT22;51482;47.014;7.652;2023-08-24T05:05:32;19.60;99.90
64951;DHT22;51482;47.014;7.652;2023-08-24T05:07:59;19.70;99.90
64951;DHT22;51482;47.014;7.652;2023-08-24T05:10:25;19.60;99.90
64951;DHT22;51482;47.014;7.652;2023-08-24T05:12:51;19.50;99.90
64951;DHT22;51482;47.014;7.652;2023-08-24T05:15:17;19.50;99.90
64951;DHT22;51482;47.014;7.652;2023-08-24T05:17:43;19.10;99.90
64951;DHT22;51482;47.014;7.652;2023-08-24T05:20:08;19.50;99.90
64951;DHT22;51482;47.014;7.652;2023-08-24T05:22:38;19.50;99.90
64951;DHT22;51482;47.014;7.652;2023-08-24T05:25:03;19.50;99.90
64951;DHT22;51482;47.014;7.652;2023-08-24T05:27:30;19.50;99.90
64951;DHT22;51482;47.014;7.652;2023-08-24T05:29:56;19.60;99.90
64951;DHT22;51482;47.014;7.652;2023-08-24T05:32:21;19.70;99.90
64951;DHT22;51482;47.014;7.652;2023-08-24T05:34:47;19.70;99.90
64951;DHT22;51482;47.014;7.652;2023-08-24T05:37:12;19.70;99.90
64951;DHT22;51482;47.014;7.652;2023-08-24T05:39:38;19.70;99.90
64951;DHT22;51482;47.014;7.652;2023-08-24T05:42:04;19.70;99.90
64951;DHT22;51482;47.014;7.652;2023-08-24T05:44:30;19.90;99.90
64951;DHT22;51482;47.014;7.652;2023-08-24T05:46:55;19.90;99.90
64951;DHT22;51482;47.014;7.652;2023-08-24T05:49:21;19.90;99.90
64951;DHT22;51482;47.014;7.652;2023-08-24T05:51:49;19.90;99.90
64951;DHT22;51482;47.014;7.652;2023-08-24T05:54:15;20.10;99.90
64951;DHT22;51482;47.014;7.652;2023-08-24T05:56:46;20.10;99.90
64951;DHT22;51482;47.014;7.652;2023-08-24T05:59:13;20.10;99.90
64951;DHT22;51482;47.014;7.652;2023-08-24T06:01:39;20.10;99.90
64951;DHT22;51482;47.014;7.652;2023-08-24T06:04:05;20.20;99.90
64951;DHT22;51482;47.014;7.652;2023-08-24T06:06:31;20.30;99.90
64951;DHT22;51482;47.014;7.652;2023-08-24T06:08:56;20.50;99.90
64951;DHT22;51482;47.014;7.652;2023-08-24T06:11:22;20.50;99.90
64951;DHT22;51482;47.014;7.652;2023-08-24T06:13:48;20.60;99.90
64951;DHT22;51482;47.014;7.652;2023-08-24T06:16:14;20.50;99.90
64951;DHT22;51482;47.014;7.652;2023-08-24T06:18:39;20.50;99.90
64951;DHT22;51482;47.014;7.652;2023-08-24T06:21:05;20.40;99.90
64951;DHT22;51482;47.014;7.652;2023-08-24T06:23:30;20.30;99.90
64951;DHT22;51482;47.014;7.652;2023-08-24T06:25:56;20.30;99.90
64951;DHT22;51482;47.014;7.652;2023-08-24T06:28:21;20.30;99.90
64951;DHT22;51482;47.014;7.652;2023-08-24T06:30:47;19.90;99.90
64951;DHT22;51482;47.014;7.652;2023-08-24T06:33:13;20.40;99.90
64951;DHT22;51482;47.014;7.652;2023-08-24T06:35:39;20.50;99.90
64951;DHT22;51482;47.014;7.652;2023-08-24T06:38:05;20.60;99.90
64951;DHT22;51482;47.014;7.652;2023-08-24T06:40:31;20.70;99.90
64951;DHT22;51482;47.014;7.652;2023-08-24T06:42:57;20.80;99.90
64951;DHT22;51482;47.014;7.652;2023-08-24T06:45:23;20.90;99.90
64951;DHT22;51482;47.014;7.652;2023-08-24T06:47:48;20.90;99.90
64951;DHT22;51482;47.014;7.652;2023-08-24T06:50:14;21.00;99.90
64951;DHT22;51482;47.014;7.652;2023-08-24T06:52:41;21.20;99.90
64951;DHT22;51482;47.014;7.652;2023-08-24T06:55:08;21.30;99.90
64951;DHT22;51482;47.014;7.652;2023-08-24T06:57:34;21.50;99.90
64951;DHT22;51482;47.014;7.652;2023-08-24T07:00:00;21.60;99.90
64951;DHT22;51482;47.014;7.652;2023-08-24T07:02:25;21.70;99.90
64951;DHT22;51482;47.014;7.652;2023-08-24T07:04:51;21.80;99.90
64951;DHT22;51482;47.014;7.652;2023-08-24T07:07:16;22.00;99.90
64951;DHT22;51482;47.014;7.652;2023-08-24T07:09:42;22.10;99.90
64951;DHT22;51482;47.014;7.652;2023-08-24T07:12:09;22.30;99.90
64951;DHT22;51482;47.014;7.652;2023-08-24T07:14:36;22.30;99.90
64951;DHT22;51482;47.014;7.652;2023-08-24T07:17:02;22.50;99.90
64951;DHT22;51482;47.014;7.652;2023-08-24T07:19:28;22.60;99.90
64951;DHT22;51482;47.014;7.652;2023-08-24T07:21:53;22.70;99.90
64951;DHT22;51482;47.014;7.652;2023-08-24T07:24:19;23.20;99.90
64951;DHT22;51482;47.014;7.652;2023-08-24T07:26:46;23.00;99.90
64951;DHT22;51482;47.014;7.652;2023-08-24T07:29:12;23.30;99.90
64951;DHT22;51482;47.014;7.652;2023-08-24T07:31:37;23.40;99.90
64951;DHT22;51482;47.014;7.652;2023-08-24T07:34:03;23.50;99.90
64951;DHT22;51482;47.014;7.652;2023-08-24T07:36:29;23.80;99.90
64951;DHT22;51482;47.014;7.652;2023-08-24T07:38:55;23.90;99.90
64951;DHT22;51482;47.014;7.652;2023-08-24T07:41:21;24.20;99.90
64951;DHT22;51482;47.014;7.652;2023-08-24T07:43:46;24.40;99.90
64951;DHT22;51482;47.014;7.652;2023-08-24T07:46:12;24.70;99.90
64951;DHT22;51482;47.014;7.652;2023-08-24T07:48:38;24.90;99.90
64951;DHT22;51482;47.014;7.652;2023-08-24T07:51:03;25.60;99.90
64951;DHT22;51482;47.014;7.652;2023-08-24T07:53:29;25.40;99.90
64951;DHT22;51482;47.014;7.652;2023-08-24T07:55:54;25.70;99.90
64951;DHT22;51482;47.014;7.652;2023-08-24T07:58:23;26.00;99.90
64951;DHT22;51482;47.014;7.652;2023-08-24T08:00:50;26.20;99.90
64951;DHT22;51482;47.014;7.652;2023-08-24T08:03:17;26.30;99.90
64951;DHT22;51482;47.014;7.652;2023-08-24T08:05:42;26.60;99.90
64951;DHT22;51482;47.014;7.652;2023-08-24T08:08:08;26.60;99.90
64951;DHT22;51482;47.014;7.652;2023-08-24T08:10:33;26.90;99.90
64951;DHT22;51482;47.014;7.652;2023-08-24T08:12:59;27.10;99.90
64951;DHT22;51482;47.014;7.652;2023-08-24T08:15:24;27.30;99.90
64951;DHT22;51482;47.014;7.652;2023-08-24T08:17:51;27.60;99.90
64951;DHT22;51482;47.014;7.652;2023-08-24T08:20:16;27.80;99.90
64951;DHT22;51482;47.014;7.652;2023-08-24T08:22:45;28.10;99.90
64951;DHT22;51482;47.014;7.652;2023-08-24T08:25:10;28.20;99.90
64951;DHT22;51482;47.014;7.652;2023-08-24T08:27:37;28.40;99.90
64951;DHT22;51482;47.014;7.652;2023-08-24T08:30:03;29.20;99.90
64951;DHT22;51482;47.014;7.652;2023-08-24T08:32:30;29.00;99.90
64951;DHT22;51482;47.014;7.652;2023-08-24T08:34:56;29.20;99.90
64951;DHT22;51482;47.014;7.652;2023-08-24T08:37:23;29.40;99.90
64951;DHT22;51482;47.014;7.652;2023-08-24T08:39:49;29.70;99.90
64951;DHT22;51482;47.014;7.652;2023-08-24T08:42:14;29.90;99.90
64951;DHT22;51482;47.014;7.652;2023-08-24T08:44:42;30.40;99.90
64951;DHT22;51482;47.014;7.652;2023-08-24T08:47:10;30.40;99.90
64951;DHT22;51482;47.014;7.652;2023-08-24T08:49:38;30.40;99.90
64951;DHT22;51482;47.014;7.652;2023-08-24T08:52:05;30.80;99.90
64951;DHT22;51482;47.014;7.652;2023-08-24T08:54:31;31.00;99.90
64951;DHT22;51482;47.014;7.652;2023-08-24T08:56:56;31.20;99.90
64951;DHT22;51482;47.014;7.652;2023-08-24T08:59:22;31.40;99.90
64951;DHT22;51482;47.014;7.652;2023-08-24T09:01:48;31.60;99.90
64951;DHT22;51482;47.014;7.652;2023-08-24T09:04:16;31.90;99.90
64951;DHT22;51482;47.014;7.652;2023-08-24T09:06:42;32.10;99.90
64951;DHT22;51482;47.014;7.652;2023-08-24T09:09:08;32.20;99.90
64951;DHT22;51482;47.014;7.652;2023-08-24T09:11:34;32.40;99.70
64951;DHT22;51482;47.014;7.652;2023-08-24T09:13:59;32.70;98.50
64951;DHT22;51482;47.014;7.652;2023-08-24T09:16:29;32.70;99.90
64951;DHT22;51482;47.014;7.652;2023-08-24T09:18:55;33.00;99.10
64951;DHT22;51482;47.014;7.652;2023-08-24T09:21:20;33.20;98.80
64951;DHT22;51482;47.014;7.652;2023-08-24T09:23:55;33.40;96.50
64951;DHT22;51482;47.014;7.652;2023-08-24T09:26:35;33.60;95.60
64951;DHT22;51482;47.014;7.652;2023-08-24T09:29:14;34.10;94.90
64951;DHT22;51482;47.014;7.652;2023-08-24T09:31:40;34.00;94.40
64951;DHT22;51482;47.014;7.652;2023-08-24T09:34:06;34.00;92.50
64951;DHT22;51482;47.014;7.652;2023-08-24T09:36:35;34.30;93.70
64951;DHT22;51482;47.014;7.652;2023-08-24T09:39:02;34.60;92.40
64951;DHT22;51482;47.014;7.652;2023-08-24T09:41:48;34.70;91.20
64951;DHT22;51482;47.014;7.652;2023-08-24T09:44:14;34.80;88.90
64951;DHT22;51482;47.014;7.652;2023-08-24T09:46:40;35.20;86.10
64951;DHT22;51482;47.014;7.652;2023-08-24T09:49:08;35.10;82.50
64951;DHT22;51482;47.014;7.652;2023-08-24T09:51:35;35.30;84.40
64951;DHT22;51482;47.014;7.652;2023-08-24T09:54:09;35.50;81.90
64951;DHT22;51482;47.014;7.652;2023-08-24T09:56:36;35.70;81.40
64951;DHT22;51482;47.014;7.652;2023-08-24T10:01:33;36.00;78.10
64951;DHT22;51482;47.014;7.652;2023-08-24T10:04:00;36.30;78.40
64951;DHT22;51482;47.014;7.652;2023-08-24T10:06:27;36.70;76.70
64951;DHT22;51482;47.014;7.652;2023-08-24T10:08:57;36.60;74.00
64951;DHT22;51482;47.014;7.652;2023-08-24T10:11:28;36.80;75.00
64951;DHT22;51482;47.014;7.652;2023-08-24T10:14:04;37.00;70.50
64951;DHT22;51482;47.014;7.652;2023-08-24T10:16:35;36.90;68.30
64951;DHT22;51482;47.014;7.652;2023-08-24T10:19:02;36.90;70.70
64951;DHT22;51482;47.014;7.652;2023-08-24T10:21:29;36.90;66.40
64951;DHT22;51482;47.014;7.652;2023-08-24T10:23:57;37.10;65.00
64951;DHT22;51482;47.014;7.652;2023-08-24T10:26:23;37.10;63.70
64951;DHT22;51482;47.014;7.652;2023-08-24T10:28:52;37.30;66.70
64951;DHT22;51482;47.014;7.652;2023-08-24T10:31:19;37.70;65.50
64951;DHT22;51482;47.014;7.652;2023-08-24T10:33:46;37.90;64.40
64951;DHT22;51482;47.014;7.652;2023-08-24T10:36:15;37.90;59.60
64951;DHT22;51482;47.014;7.652;2023-08-24T10:38:42;38.00;64.40
64951;DHT22;51482;47.014;7.652;2023-08-24T10:41:08;38.20;61.30
64951;DHT22;51482;47.014;7.652;2023-08-24T10:43:38;38.40;59.00
64951;DHT22;51482;47.014;7.652;2023-08-24T10:46:05;38.60;59.50
64951;DHT22;51482;47.014;7.652;2023-08-24T10:53:45;38.80;58.30
64951;DHT22;51482;47.014;7.652;2023-08-24T10:56:13;38.90;56.80
64951;DHT22;51482;47.014;7.652;2023-08-24T10:58:38;39.00;54.90
64951;DHT22;51482;47.014;7.652;2023-08-24T11:01:04;39.10;55.70
64951;DHT22;51482;47.014;7.652;2023-08-24T11:03:33;38.80;53.00
64951;DHT22;51482;47.014;7.652;2023-08-24T11:05:59;38.90;53.10
64951;DHT22;51482;47.014;7.652;2023-08-24T11:08:49;38.80;53.30
64951;DHT22;51482;47.014;7.652;2023-08-24T11:11:21;39.20;55.00
64951;DHT22;51482;47.014;7.652;2023-08-24T11:14:16;39.90;52.80
64951;DHT22;51482;47.014;7.652;2023-08-24T11:16:48;39.50;50.60
64951;DHT22;51482;47.014;7.652;2023-08-24T11:19:15;39.60;52.50
64951;DHT22;51482;47.014;7.652;2023-08-24T11:21:42;39.20;50.50
64951;DHT22;51482;47.014;7.652;2023-08-24T11:24:09;39.40;52.10
64951;DHT22;51482;47.014;7.652;2023-08-24T11:26:42;39.50;50.40
64951;DHT22;51482;47.014;7.652;2023-08-24T11:29:08;39.80;52.90
64951;DHT22;51482;47.014;7.652;2023-08-24T11:31:34;40.20;50.60
64951;DHT22;51482;47.014;7.652;2023-08-24T11:34:00;40.10;49.30
64951;DHT22;51482;47.014;7.652;2023-08-24T11:36:26;40.60;48.40
64951;DHT22;51482;47.014;7.652;2023-08-24T11:38:56;40.70;49.10
64951;DHT22;51482;47.014;7.652;2023-08-24T11:41:22;40.80;49.50
64951;DHT22;51482;47.014;7.652;2023-08-24T11:43:49;40.80;48.80
64951;DHT22;51482;47.014;7.652;2023-08-24T11:46:18;41.00;49.30
64951;DHT22;51482;47.014;7.652;2023-08-24T11:48:44;40.80;47.20
64951;DHT22;51482;47.014;7.652;2023-08-24T11:51:11;41.00;48.90
64951;DHT22;51482;47.014;7.652;2023-08-24T11:53:42;41.10;45.20
64951;DHT22;51482;47.014;7.652;2023-08-24T11:56:08;41.30;48.50
64951;DHT22;51482;47.014;7.652;2023-08-24T11:58:40;41.40;46.50
64951;DHT22;51482;47.014;7.652;2023-08-24T12:01:10;41.30;45.60
64951;DHT22;51482;47.014;7.652;2023-08-24T12:03:37;41.30;44.40
64951;DHT22;51482;47.014;7.652;2023-08-24T12:06:14;41.30;45.10
64951;DHT22;51482;47.014;7.652;2023-08-24T12:08:41;41.30;44.60
64951;DHT22;51482;47.014;7.652;2023-08-24T12:11:15;41.30;45.50
64951;DHT22;51482;47.014;7.652;2023-08-24T12:13:51;41.30;44.10
64951;DHT22;51482;47.014;7.652;2023-08-24T12:16:21;41.30;43.60
64951;DHT22;51482;47.014;7.652;2023-08-24T12:18:58;41.40;44.00
64951;DHT22;51482;47.014;7.652;2023-08-24T12:21:30;41.70;46.50
64951;DHT22;51482;47.014;7.652;2023-08-24T12:24:00;41.60;44.00
64951;DHT22;51482;47.014;7.652;2023-08-24T12:26:27;41.50;44.90
64951;DHT22;51482;47.014;7.652;2023-08-24T12:28:55;41.40;43.60
64951;DHT22;51482;47.014;7.652;2023-08-24T12:31:20;41.30;43.30
64951;DHT22;51482;47.014;7.652;2023-08-24T12:33:59;41.30;43.10
64951;DHT22;51482;47.014;7.652;2023-08-24T12:36:26;41.40;43.70
64951;DHT22;51482;47.014;7.652;2023-08-24T12:38:51;41.50;43.10
64951;DHT22;51482;47.014;7.652;2023-08-24T12:41:17;41.50;42.70
64951;DHT22;51482;47.014;7.652;2023-08-24T12:43:42;41.70;44.50
64951;DHT22;51482;47.014;7.652;2023-08-24T12:46:09;41.50;44.80
64951;DHT22;51482;47.014;7.652;2023-08-24T12:48:35;41.50;46.00
64951;DHT22;51482;47.014;7.652;2023-08-24T12:51:00;41.60;45.30
64951;DHT22;51482;47.014;7.652;2023-08-24T12:53:26;41.60;44.90
64951;DHT22;51482;47.014;7.652;2023-08-24T12:55:51;41.60;44.90
64951;DHT22;51482;47.014;7.652;2023-08-24T12:58:17;41.50;43.80
64951;DHT22;51482;47.014;7.652;2023-08-24T13:00:43;41.60;45.40
64951;DHT22;51482;47.014;7.652;2023-08-24T13:03:09;41.70;44.90
64951;DHT22;51482;47.014;7.652;2023-08-24T13:05:35;41.80;44.70
64951;DHT22;51482;47.014;7.652;2023-08-24T13:08:00;41.70;44.00
64951;DHT22;51482;47.014;7.652;2023-08-24T13:10:26;41.90;45.50
64951;DHT22;51482;47.014;7.652;2023-08-24T13:12:51;41.90;43.10
64951;DHT22;51482;47.014;7.652;2023-08-24T13:15:17;42.00;44.90
64951;DHT22;51482;47.014;7.652;2023-08-24T13:17:42;41.90;43.40
64951;DHT22;51482;47.014;7.652;2023-08-24T13:20:08;41.60;43.00
64951;DHT22;51482;47.014;7.652;2023-08-24T13:22:34;41.70;43.00
64951;DHT22;51482;47.014;7.652;2023-08-24T13:24:59;41.20;44.70
64951;DHT22;51482;47.014;7.652;2023-08-24T13:27:25;41.60;43.00
64951;DHT22;51482;47.014;7.652;2023-08-24T13:29:50;40.50;43.30
64951;DHT22;51482;47.014;7.652;2023-08-24T13:32:16;40.30;43.60
64951;DHT22;51482;47.014;7.652;2023-08-24T13:34:41;40.20;43.90
64951;DHT22;51482;47.014;7.652;2023-08-24T13:37:07;40.00;45.40
64951;DHT22;51482;47.014;7.652;2023-08-24T13:39:32;40.00;43.90
64951;DHT22;51482;47.014;7.652;2023-08-24T13:42:01;39.70;44.00
64951;DHT22;51482;47.014;7.652;2023-08-24T13:44:27;39.40;45.00
64951;DHT22;51482;47.014;7.652;2023-08-24T13:46:53;39.40;45.30
64951;DHT22;51482;47.014;7.652;2023-08-24T13:49:19;39.40;45.50
64951;DHT22;51482;47.014;7.652;2023-08-24T13:51:45;39.00;45.70
64951;DHT22;51482;47.014;7.652;2023-08-24T13:54:15;38.80;46.40
64951;DHT22;51482;47.014;7.652;2023-08-24T13:56:41;38.60;47.60
64951;DHT22;51482;47.014;7.652;2023-08-24T13:59:07;38.50;47.10
64951;DHT22;51482;47.014;7.652;2023-08-24T14:01:33;38.30;46.70
64951;DHT22;51482;47.014;7.652;2023-08-24T14:03:58;38.10;49.00
64951;DHT22;51482;47.014;7.652;2023-08-24T14:06:24;38.30;49.20
64951;DHT22;51482;47.014;7.652;2023-08-24T14:08:50;37.70;50.30
64951;DHT22;51482;47.014;7.652;2023-08-24T14:11:15;37.60;50.50
64951;DHT22;51482;47.014;7.652;2023-08-24T14:13:42;37.50;50.90
64951;DHT22;51482;47.014;7.652;2023-08-24T14:16:07;37.30;51.50
64951;DHT22;51482;47.014;7.652;2023-08-24T14:18:33;37.30;51.10
64951;DHT22;51482;47.014;7.652;2023-08-24T14:21:01;37.20;49.80
64951;DHT22;51482;47.014;7.652;2023-08-24T14:23:27;37.10;52.10
64951;DHT22;51482;47.014;7.652;2023-08-24T14:25:53;37.20;52.70
64951;DHT22;51482;47.014;7.652;2023-08-24T14:28:20;37.60;53.40
64951;DHT22;51482;47.014;7.652;2023-08-24T14:30:50;37.30;51.70
64951;DHT22;51482;47.014;7.652;2023-08-24T14:33:16;37.20;54.40
64951;DHT22;51482;47.014;7.652;2023-08-24T14:35:48;37.30;53.40
64951;DHT22;51482;47.014;7.652;2023-08-24T14:38:14;37.20;55.00
64951;DHT22;51482;47.014;7.652;2023-08-24T14:40:39;37.30;55.20
64951;DHT22;51482;47.014;7.652;2023-08-24T14:43:05;37.40;54.90
64951;DHT22;51482;47.014;7.652;2023-08-24T14:45:30;37.80;55.80
64951;DHT22;51482;47.014;7.652;2023-08-24T14:47:56;38.20;51.50
64951;DHT22;51482;47.014;7.652;2023-08-24T14:50:21;38.30;49.40
64951;DHT22;51482;47.014;7.652;2023-08-24T14:52:47;38.40;47.60
64951;DHT22;51482;47.014;7.652;2023-08-24T14:55:12;38.70;48.80
64951;DHT22;51482;47.014;7.652;2023-08-24T14:57:38;38.70;48.80
64951;DHT22;51482;47.014;7.652;2023-08-24T15:00:04;38.80;49.00
64951;DHT22;51482;47.014;7.652;2023-08-24T15:02:30;38.70;48.40
64951;DHT22;51482;47.014;7.652;2023-08-24T15:04:57;39.00;49.50
64951;DHT22;51482;47.014;7.652;2023-08-24T15:07:23;38.70;49.90
64951;DHT22;51482;47.014;7.652;2023-08-24T15:09:48;38.50;49.30
64951;DHT22;51482;47.014;7.652;2023-08-24T15:12:14;38.30;50.90
64951;DHT22;51482;47.014;7.652;2023-08-24T15:14:59;38.10;51.60
64951;DHT22;51482;47.014;7.652;2023-08-24T15:17:26;37.90;52.40
64951;DHT22;51482;47.014;7.652;2023-08-24T15:19:52;37.80;53.50
64951;DHT22;51482;47.014;7.652;2023-08-24T15:22:18;37.60;50.30
64951;DHT22;51482;47.014;7.652;2023-08-24T15:24:43;38.00;53.30
64951;DHT22;51482;47.014;7.652;2023-08-24T15:27:09;37.40;51.80
64951;DHT22;51482;47.014;7.652;2023-08-24T15:29:34;37.20;51.20
64951;DHT22;51482;47.014;7.652;2023-08-24T15:32:00;37.20;53.20
64951;DHT22;51482;47.014;7.652;2023-08-24T15:34:26;37.00;53.60
64951;DHT22;51482;47.014;7.652;2023-08-24T15:36:51;37.00;55.10
64951;DHT22;51482;47.014;7.652;2023-08-24T15:39:19;36.80;54.90